Little Horse Creek, North Carolina
Current Conditions -  °F | °C
As of 4:15 AM on Monday 20 Oct 2014 (Local Time) from KGEV Reporting Station
Clear Clear  
Wind Chill: 40°   Ceiling: Unl
Heat Index: 40°   Visibility: 10mi
Dew Point: 34°   Wind: 3mph
Humidity: 79%   Direction: 130°SE
Pressure: 30.11"   Gusts: NA
Location:  36.524°N, 81.538°W
Report Text: KGEV 200815Z AUTO 13003KT 10SM CLR 05/01 A3011 RMK AO2 T00450011
Loading
Personal Weather Stations






























Interactive Weather Map
Tropical Storm Tracking
New forecast layout! Learn more

10-Day Weather Forecast

Advertisements
Track Severe Weather on mobile